Terminal Aerodrome Forecast
Issued by NWS Grand Forks, ND

Home | Current Version | Previous Version | Graphics & Text | Print | Product List | Glossary On
Versions: 1 2 3 4 5 6 7 8 9 10 11 12 13 14 15 16 17 18 19 20 21 22
000
FTUS43 KFGF 202333
TAFGFK
TAF
KGFK 202333Z 2100/2124 07012KT P6SM -RA OVC035
     FM210400 04010KT P6SM -RA OVC025
     FM210900 01010KT P6SM -RA BKN015 OVC020
     FM211300 36010KT P6SM -RA OVC015
     FM211700 34013G21KT P6SM BKN025=

USA.gov is the U.S. government's official web portal to all federal, state and local government web resources and services.